createdAt,value
2019-04-25T00:02:11.584Z,14.33
2019-04-25T00:07:13.591Z,14.39
2019-04-25T00:12:16.079Z,14.29
2019-04-25T00:17:21.435Z,14.25
2019-04-25T00:22:33.337Z,14.09
2019-04-25T00:27:35.474Z,14.02
2019-04-25T00:32:37.613Z,13.77
2019-04-25T00:37:39.661Z,13.68
2019-04-25T00:42:43.607Z,13.59
2019-04-25T00:47:47.767Z,13.52
2019-04-25T00:52:51.933Z,13.31
2019-04-25T00:57:58.702Z,13.10
2019-04-25T01:03:03.330Z,12.96
2019-04-25T01:08:05.584Z,12.81
2019-04-25T01:13:07.667Z,12.69
2019-04-25T01:18:09.866Z,12.80
2019-04-25T01:23:13.673Z,12.88
2019-04-25T01:28:15.948Z,12.74
2019-04-25T01:33:19.654Z,12.44
2019-04-25T01:38:37.924Z,12.39
2019-04-25T01:43:48.417Z,12.39
2019-04-25T01:48:53.802Z,12.24
2019-04-25T01:53:56.799Z,12.24
2019-04-25T01:58:59.469Z,12.11
2019-04-25T02:04:03.526Z,12.21
2019-04-25T02:09:08.944Z,12.35
2019-04-25T02:14:13.618Z,12.22
2019-04-25T02:19:15.930Z,12.34
2019-04-25T02:24:18.158Z,11.97
2019-04-25T02:29:20.235Z,12.06
2019-04-25T02:34:24.820Z,11.90
2019-04-25T02:39:27.222Z,11.85
2019-04-25T02:44:31.251Z,11.69
2019-04-25T02:49:54.458Z,11.69
2019-04-25T02:54:58.423Z,11.48
2019-04-25T03:00:02.676Z,11.37
2019-04-25T03:05:09.792Z,11.39
2019-04-25T03:10:17.955Z,11.32
2019-04-25T03:15:20.134Z,11.38
2019-04-25T03:20:47.734Z,11.34
2019-04-25T03:25:50.964Z,11.43
2019-04-25T03:30:56.779Z,11.39
2019-04-25T03:35:57.206Z,11.23
2019-04-25T03:40:59.187Z,11.20
2019-04-25T03:46:03.105Z,11.16
2019-04-25T03:51:06.658Z,11.27
2019-04-25T03:56:09.039Z,11.07
2019-04-25T04:01:11.294Z,11.06
2019-04-25T04:06:14.591Z,10.87
2019-04-25T04:11:17.323Z,10.99
2019-04-25T04:16:23.232Z,10.94
2019-04-25T04:21:46.400Z,10.94
2019-04-25T04:27:09.528Z,10.92
2019-04-25T04:32:14.382Z,10.95
2019-04-25T04:37:17.563Z,10.83
2019-04-25T04:42:19.675Z,10.99
2019-04-25T04:47:23.519Z,11.10
2019-04-25T04:52:25.918Z,11.17
2019-04-25T04:57:33.436Z,11.37
2019-04-25T05:03:00.681Z,11.33
2019-04-25T05:08:12.614Z,11.34
2019-04-25T05:13:16.695Z,11.38
2019-04-25T05:18:33.021Z,11.44
2019-04-25T05:23:24.814Z,11.60
2019-04-25T05:28:27.218Z,11.84
2019-04-25T05:33:29.339Z,11.99
2019-04-25T05:38:31.355Z,11.98
2019-04-25T05:43:33.568Z,12.05
2019-04-25T05:48:35.688Z,12.18
2019-04-25T05:53:37.950Z,12.42
2019-04-25T05:58:39.942Z,12.55
2019-04-25T06:03:41.995Z,13.91
2019-04-25T06:08:51.227Z,14.13
2019-04-25T06:14:00.310Z,13.40
2019-04-25T06:19:18.551Z,13.24
2019-04-25T06:24:45.772Z,13.24
2019-04-25T06:29:58.363Z,13.28
2019-04-25T06:34:54.590Z,13.45
2019-04-25T06:39:56.779Z,13.48
2019-04-25T06:45:28.045Z,13.63
2019-04-25T06:50:30.340Z,13.71
2019-04-25T06:55:34.336Z,13.95
2019-04-25T07:00:41.141Z,14.07
2019-04-25T07:05:41.080Z,14.16
2019-04-25T07:10:44.655Z,14.43
2019-04-25T07:15:47.130Z,14.55
2019-04-25T07:20:49.227Z,14.58
2019-04-25T07:26:00.870Z,14.83
2019-04-25T07:31:23.364Z,14.75
2019-04-25T07:36:26.656Z,14.97
2019-04-25T07:41:31.467Z,15.39
2019-04-25T07:46:37.376Z,15.54
2019-04-25T07:51:37.997Z,15.44
2019-04-25T07:56:40.071Z,15.74
2019-04-25T08:01:43.607Z,15.86
2019-04-25T08:06:46.102Z,16.20
2019-04-25T08:11:48.216Z,16.29
2019-04-25T08:16:53.836Z,16.69
2019-04-25T08:21:56.880Z,16.81
2019-04-25T08:27:00.117Z,16.72
2019-04-25T08:32:02.350Z,16.95
2019-04-25T08:37:17.039Z,17.02
2019-04-25T08:42:08.974Z,17.15
2019-04-25T08:47:11.021Z,17.42
2019-04-25T08:52:13.340Z,17.29
2019-04-25T08:57:25.610Z,17.53
2019-04-25T09:02:40.635Z,17.84
2019-04-25T09:07:44.487Z,17.69
2019-04-25T09:12:47.127Z,18.14
2019-04-25T09:17:49.209Z,18.13
2019-04-25T09:22:51.396Z,18.13
2019-04-25T09:27:54.393Z,18.04
2019-04-25T09:32:56.729Z,18.40
2019-04-25T09:38:00.300Z,18.51
2019-04-25T09:43:03.622Z,18.46
2019-04-25T09:48:13.490Z,18.25
2019-04-25T09:53:23.177Z,18.74
2019-04-25T09:58:31.434Z,18.91
2019-04-25T10:03:33.673Z,18.72
2019-04-25T10:08:36.991Z,19.07
2019-04-25T10:13:40.039Z,18.70
2019-04-25T10:18:43.733Z,19.23
2019-04-25T10:23:46.796Z,19.26
2019-04-25T10:28:49.592Z,19.49
2019-04-25T10:33:53.446Z,19.74
2019-04-25T10:39:07.243Z,19.59
2019-04-25T10:44:01.063Z,19.93
2019-04-25T10:49:04.382Z,20.10
2019-04-25T10:54:06.760Z,20.00
2019-04-25T10:59:08.810Z,20.74
2019-04-25T11:04:20.674Z,20.49
2019-04-25T11:09:24.416Z,20.23
2019-04-25T11:14:29.622Z,20.77
2019-04-25T11:19:31.854Z,20.47
2019-04-25T11:24:34.377Z,20.91
2019-04-25T11:29:36.565Z,21.04
2019-04-25T11:34:38.755Z,20.87
2019-04-25T11:40:09.254Z,20.90
2019-04-25T11:45:11.843Z,21.35
2019-04-25T11:50:14.202Z,21.01
2019-04-25T11:55:17.208Z,21.05
2019-04-25T12:00:24.464Z,21.35
2019-04-25T12:05:26.950Z,21.57
2019-04-25T12:10:29.509Z,21.81
2019-04-25T12:15:33.259Z,21.89
2019-04-25T12:20:36.581Z,22.13
2019-04-25T12:25:38.681Z,21.84
2019-04-25T12:30:40.804Z,22.50
2019-04-25T12:35:43.674Z,22.34
2019-04-25T12:40:46.961Z,21.93
2019-04-25T12:46:13.175Z,22.49
2019-04-25T12:51:15.200Z,22.28
2019-04-25T12:56:17.300Z,22.92
2019-04-25T13:01:19.374Z,22.34
2019-04-25T13:06:21.365Z,22.53
2019-04-25T13:11:24.152Z,23.28
2019-04-25T13:16:26.337Z,23.37
2019-04-25T13:21:28.442Z,23.04
2019-04-25T13:26:34.987Z,23.28
2019-04-25T13:31:56.573Z,22.97
2019-04-25T13:36:59.491Z,23.34
2019-04-25T13:42:02.436Z,23.43
2019-04-25T13:47:05.980Z,23.47
2019-04-25T13:52:08.767Z,23.40
2019-04-25T13:57:10.852Z,23.35
2019-04-25T14:02:14.095Z,23.46
2019-04-25T14:07:16.436Z,23.56
2019-04-25T14:12:18.614Z,23.68
2019-04-25T14:17:33.785Z,23.85
2019-04-25T14:22:36.027Z,23.87
2019-04-25T14:27:38.290Z,23.97
2019-04-25T14:32:40.288Z,23.79
2019-04-25T14:37:43.840Z,23.73
2019-04-25T14:42:46.042Z,23.92
2019-04-25T14:47:48.047Z,23.95
2019-04-25T14:52:50.146Z,23.73
2019-04-25T14:57:52.944Z,23.97
2019-04-25T15:02:55.330Z,23.84
2019-04-25T15:07:57.412Z,23.82
2019-04-25T15:12:59.807Z,24.01
2019-04-25T15:18:03.032Z,23.88
2019-04-25T15:23:05.309Z,23.79
2019-04-25T15:28:07.448Z,23.81
2019-04-25T15:33:11.353Z,23.70
2019-04-25T15:38:21.918Z,23.48
2019-04-25T15:43:31.409Z,23.39
2019-04-25T15:48:33.616Z,23.38
2019-04-25T15:53:35.852Z,23.29
2019-04-25T15:58:37.918Z,23.41
2019-04-25T16:03:41.022Z,23.54
2019-04-25T16:08:49.131Z,23.24
2019-04-25T16:13:52.242Z,23.15
2019-04-25T16:18:54.394Z,23.05
2019-04-25T16:23:56.487Z,22.90
2019-04-25T16:28:59.580Z,22.74
2019-04-25T16:34:01.842Z,22.70
2019-04-25T16:39:06.167Z,22.60
2019-04-25T16:44:12.901Z,22.36
2019-04-25T16:49:14.977Z,22.02
2019-04-25T16:54:17.158Z,22.05
2019-04-25T16:59:19.258Z,21.92
2019-04-25T17:04:21.371Z,21.70
2019-04-25T17:09:23.474Z,21.69
2019-04-25T17:14:37.463Z,21.56
2019-04-25T17:19:48.372Z,21.51
2019-04-25T17:24:50.397Z,21.50
2019-04-25T17:29:53.847Z,21.34
2019-04-25T17:35:11.128Z,21.08
2019-04-25T17:40:17.139Z,20.89
2019-04-25T17:45:23.911Z,20.73
2019-04-25T17:50:26.104Z,20.49
2019-04-25T17:55:28.293Z,20.19
2019-04-25T18:00:38.356Z,20.04
2019-04-25T18:05:41.409Z,19.92
2019-04-25T18:10:44.571Z,19.71
2019-04-25T18:16:06.392Z,19.64
2019-04-25T18:21:08.375Z,19.53
2019-04-25T18:26:25.332Z,19.49
2019-04-25T18:31:27.539Z,19.32
2019-04-25T18:36:39.009Z,19.27
2019-04-25T18:41:49.420Z,19.04
2019-04-25T18:46:51.553Z,19.03
2019-04-25T18:51:58.104Z,18.88
2019-04-25T18:57:31.042Z,18.77
2019-04-25T19:02:42.662Z,18.58
2019-04-25T19:07:45.358Z,18.43
2019-04-25T19:12:47.544Z,18.40
2019-04-25T19:17:49.735Z,18.43
2019-04-25T19:22:52.623Z,18.41
2019-04-25T19:27:54.974Z,18.44
2019-04-25T19:32:57.065Z,18.65
2019-04-25T19:38:01.129Z,18.72
2019-04-25T19:43:09.114Z,18.86
2019-04-25T19:48:11.429Z,18.70
2019-04-25T19:53:14.695Z,18.74
2019-04-25T19:58:16.936Z,18.44
2019-04-25T20:03:53.559Z,18.21
2019-04-25T20:09:02.774Z,18.07
2019-04-25T20:14:06.846Z,18.00
2019-04-25T20:19:09.519Z,17.93
2019-04-25T20:24:11.729Z,17.89
2019-04-25T20:29:13.896Z,17.94
2019-04-25T20:34:16.052Z,17.93
2019-04-25T20:39:18.038Z,17.87
2019-04-25T20:44:20.125Z,18.02
2019-04-25T20:49:22.116Z,17.99
2019-04-25T20:54:24.116Z,18.00
2019-04-25T20:59:26.120Z,18.03
2019-04-25T21:04:43.697Z,17.96
2019-04-25T21:09:46.000Z,17.94
2019-04-25T21:15:07.443Z,17.74
2019-04-25T21:20:10.672Z,17.52
2019-04-25T21:25:12.902Z,17.63
2019-04-25T21:30:15.159Z,17.67
2019-04-25T21:35:17.414Z,17.57
2019-04-25T21:40:32.099Z,17.39
2019-04-25T21:45:34.643Z,17.26
2019-04-25T21:50:37.043Z,17.32
2019-04-25T21:55:39.532Z,17.59
2019-04-25T22:01:02.456Z,17.50
2019-04-25T22:06:06.694Z,17.37
2019-04-25T22:11:08.904Z,17.45
2019-04-25T22:16:11.196Z,17.49
2019-04-25T22:21:13.487Z,17.39
2019-04-25T22:26:16.056Z,17.33
2019-04-25T22:31:23.960Z,17.18
2019-04-25T22:36:26.088Z,17.07
2019-04-25T22:41:28.123Z,16.92
2019-04-25T22:46:30.583Z,16.85
2019-04-25T22:51:32.976Z,16.72
2019-04-25T22:56:35.246Z,16.70
2019-04-25T23:01:54.541Z,16.56
2019-04-25T23:06:56.855Z,16.49
2019-04-25T23:11:58.961Z,16.41
2019-04-25T23:17:03.634Z,16.29
2019-04-25T23:22:05.952Z,16.23
2019-04-25T23:27:16.013Z,16.18
2019-04-25T23:32:17.966Z,16.22
2019-04-25T23:37:20.040Z,16.27
2019-04-25T23:42:22.432Z,16.33
2019-04-25T23:47:25.109Z,16.36
2019-04-25T23:52:27.220Z,16.60
2019-04-25T23:57:29.349Z,16.71
